Cullman, Alabama
Current Conditions -  °F | °C
As of 11:15 PM on Tuesday 25 Nov 2014 (Local Time) from KCMD Reporting Station
Scattered Clouds Scattered Clouds  
Wind Chill: 37°   Ceiling: Unl
Heat Index: 42°   Visibility: 10mi
Dew Point: 28°   Wind: 7mph
Humidity: 57%   Direction: 10°N
Pressure: 30.11"   Gusts: NA
Location:  34.17°N, 86.84°W
Report Text: KCMD 260515Z AUTO 01006KT 10SM SCT100 05/M02 A3011 RMK AO2 T00541025
Loading
Personal Weather Stations






























Interactive Weather Map New forecast layout! Learn more

10-Day Weather Forecast

Advertisements
Track Severe Weather on mobile